Time;durP1;ratioP1;P1;durP2;ratioP2;P2;SDS_P1;SDS_P2;PMS_P1;PMS_P2;Temp;Humidity;BMP_temperature;BMP_pressure;BME280_temperature;BME280_humidity;BME280_pressure;Samples;Min_cycle;Max_cycle;Signal;HPM_P1;HPM_P2
2024/01/19 00:02:15;;;;;;;8.85;1.33;;;;;;;;;;5068688;28;20020;-70
2024/01/19 00:05:00;;;;;;;11.95;1.63;;;;;;;;;;5093680;28;20020;-70
2024/01/19 00:07:46;;;;;;;5.18;1.73;;;;;;;;;;5086881;28;20043;-70
2024/01/19 00:10:33;;;;;;;4.65;2.28;;;;;;;;;;5075804;28;20078;-70
2024/01/19 00:13:18;;;;;;;4.53;1.95;;;;;;;;;;5090172;28;20024;-70
2024/01/19 00:16:04;;;;;;;4.38;1.70;;;;;;;;;;5093692;28;20024;-70
2024/01/19 00:18:49;;;;;;;2.88;1.77;;;;;;;;;;5092246;28;20485;-70
2024/01/19 00:21:42;;;;;;;9.48;1.50;;;;;;;;;;5093066;28;20032;-70
2024/01/19 00:24:28;;;;;;;3.05;1.55;;;;;;;;;;5092970;28;20024;-70
2024/01/19 00:27:14;;;;;;;3.63;1.23;;;;;;;;;;5093973;28;20051;-70
2024/01/19 00:29:59;;;;;;;4.57;1.50;;;;;;;;;;5093410;28;20016;-70
2024/01/19 00:32:45;;;;;;;3.78;1.70;;;;;;;;;;5093752;28;20059;-70
2024/01/19 00:35:30;;;;;;;4.90;1.65;;;;;;;;;;5079214;28;20028;-70
2024/01/19 00:38:16;;;;;;;5.18;2.22;;;;;;;;;;5052413;28;20021;-70
2024/01/19 00:41:02;;;;;;;8.55;1.77;;;;;;;;;;5053195;28;20021;-70
2024/01/19 00:43:47;;;;;;;2.90;1.05;;;;;;;;;;5060948;28;20028;-70
2024/01/19 00:46:33;;;;;;;2.42;1.35;;;;;;;;;;5053180;28;20119;-70
2024/01/19 00:49:18;;;;;;;2.80;1.30;;;;;;;;;;5050979;28;20035;-70
2024/01/19 00:52:04;;;;;;;1.52;1.40;;;;;;;;;;5064666;28;20007;-70
2024/01/19 00:54:50;;;;;;;1.80;1.65;;;;;;;;;;5092606;28;20028;-70
2024/01/19 00:57:36;;;;;;;2.50;1.48;;;;;;;;;;5091137;28;20027;-70
2024/01/19 01:00:22;;;;;;;3.22;1.50;;;;;;;;;;5081087;28;20531;-70
2024/01/19 01:03:08;;;;;;;2.97;1.15;;;;;;;;;;5072135;28;20040;-70
2024/01/19 01:05:59;;;;;;;2.60;1.00;;;;;;;;;;5056291;28;20031;-70
2024/01/19 01:08:45;;;;;;;5.88;1.67;;;;;;;;;;5056487;28;20017;-70
2024/01/19 01:11:30;;;;;;;4.47;0.93;;;;;;;;;;5072453;28;20024;-70
2024/01/19 01:14:16;;;;;;;5.00;1.50;;;;;;;;;;5065022;28;20029;-70
2024/01/19 01:17:02;;;;;;;3.35;1.90;;;;;;;;;;5052060;28;20024;-70
2024/01/19 01:19:47;;;;;;;3.90;1.50;;;;;;;;;;5057762;28;20078;-70
2024/01/19 01:22:33;;;;;;;4.13;1.13;;;;;;;;;;5070623;28;20020;-70
2024/01/19 01:25:19;;;;;;;3.58;1.10;;;;;;;;;;5075743;28;20026;-70
2024/01/19 01:28:04;;;;;;;4.35;1.17;;;;;;;;;;5056670;28;20021;-70
2024/01/19 01:30:50;;;;;;;8.85;1.30;;;;;;;;;;5064005;28;20116;-70
2024/01/19 01:33:35;;;;;;;3.25;1.05;;;;;;;;;;5077718;28;20016;-70
2024/01/19 01:36:21;;;;;;;2.72;1.52;;;;;;;;;;5084110;28;20031;-70
2024/01/19 01:39:07;;;;;;;1.33;1.10;;;;;;;;;;5072733;28;20041;-70
2024/01/19 01:41:52;;;;;;;3.15;1.42;;;;;;;;;;5056265;28;20074;-69
2024/01/19 01:44:38;;;;;;;6.65;1.67;;;;;;;;;;5059901;28;20185;-70
2024/01/19 01:47:23;;;;;;;1.65;1.40;;;;;;;;;;5057330;28;20104;-70
2024/01/19 01:50:09;;;;;;;1.73;1.55;;;;;;;;;;5055485;28;20401;-70
2024/01/19 01:52:55;;;;;;;2.03;0.85;;;;;;;;;;5094590;28;20037;-70
2024/01/19 01:55:41;;;;;;;4.53;1.75;;;;;;;;;;5095903;28;20554;-70
2024/01/19 01:58:26;;;;;;;1.35;1.13;;;;;;;;;;5069815;28;20074;-70
2024/01/19 02:01:12;;;;;;;2.92;1.13;;;;;;;;;;5069272;28;20028;-70
2024/01/19 02:03:57;;;;;;;1.65;1.48;;;;;;;;;;5062850;28;20025;-70
2024/01/19 02:06:43;;;;;;;8.30;1.75;;;;;;;;;;5048109;28;20016;-70
2024/01/19 02:09:29;;;;;;;4.95;1.80;;;;;;;;;;5074360;28;20150;-70
2024/01/19 02:12:15;;;;;;;2.50;1.30;;;;;;;;;;5059800;28;20055;-69
2024/01/19 02:15:00;;;;;;;3.22;1.77;;;;;;;;;;5077042;28;20028;-70
2024/01/19 02:17:49;;;;;;;6.82;3.28;;;;;;;;;;5096240;28;20032;-70
2024/01/19 02:20:34;;;;;;;2.15;1.15;;;;;;;;;;5080730;28;20072;-70
2024/01/19 02:23:21;;;;;;;1.15;0.98;;;;;;;;;;5095058;28;20518;-70
2024/01/19 02:29:50;;;;;;;0.93;0.93;;;;;;;;;;5094519;28;20020;-70
2024/01/19 02:32:35;;;;;;;1.77;1.10;;;;;;;;;;5078474;28;20035;-70
2024/01/19 02:35:21;;;;;;;1.63;1.35;;;;;;;;;;5051678;28;20029;-70
2024/01/19 02:38:07;;;;;;;0.80;0.80;;;;;;;;;;5055932;28;20076;-70
2024/01/19 02:40:52;;;;;;;2.10;1.27;;;;;;;;;;5054622;28;20087;-70
2024/01/19 02:43:38;;;;;;;1.63;1.10;;;;;;;;;;5054728;28;20021;-70
2024/01/19 02:46:24;;;;;;;3.72;1.35;;;;;;;;;;5054004;28;20029;-70
2024/01/19 02:49:09;;;;;;;2.30;0.88;;;;;;;;;;5071009;28;20024;-70
2024/01/19 02:51:55;;;;;;;1.48;1.38;;;;;;;;;;5079742;22;20036;-68
2024/01/19 02:54:40;;;;;;;3.05;1.15;;;;;;;;;;5055321;28;20129;-69
2024/01/19 02:57:26;;;;;;;2.80;1.52;;;;;;;;;;5053244;28;20031;-68
2024/01/19 03:00:12;;;;;;;9.98;1.48;;;;;;;;;;5053758;28;20021;-69
2024/01/19 03:02:58;;;;;;;4.97;1.13;;;;;;;;;;5054901;28;20406;-69
2024/01/19 03:05:44;;;;;;;1.20;1.17;;;;;;;;;;5054047;28;20025;-69
2024/01/19 03:08:29;;;;;;;7.35;1.60;;;;;;;;;;5053558;28;20394;-69
2024/01/19 03:11:15;;;;;;;2.58;1.45;;;;;;;;;;5053766;28;20021;-69
2024/01/19 03:14:01;;;;;;;2.17;1.25;;;;;;;;;;5053769;28;20029;-69
2024/01/19 03:16:46;;;;;;;1.98;1.13;;;;;;;;;;5037842;28;20120;-68
2024/01/19 03:19:32;;;;;;;5.40;1.10;;;;;;;;;;5054232;28;20025;-69
2024/01/19 03:22:17;;;;;;;1.77;1.15;;;;;;;;;;5052757;28;20021;-68
2024/01/19 03:25:04;;;;;;;8.05;1.75;;;;;;;;;;5054790;28;20029;-68
2024/01/19 03:27:49;;;;;;;9.23;1.45;;;;;;;;;;5039264;28;20090;-69
2024/01/19 03:30:36;;;;;;;3.58;1.88;;;;;;;;;;5054217;28;20025;-69
2024/01/19 03:33:22;;;;;;;5.85;1.40;;;;;;;;;;5053097;28;20025;-69
2024/01/19 03:36:07;;;;;;;5.85;1.48;;;;;;;;;;5053742;28;20031;-69
2024/01/19 03:38:53;;;;;;;1.95;1.30;;;;;;;;;;5053791;28;20024;-68
2024/01/19 03:41:39;;;;;;;3.22;1.77;;;;;;;;;;5052527;28;20028;-68
2024/01/19 03:44:24;;;;;;;9.38;1.92;;;;;;;;;;5054379;28;20486;-69
2024/01/19 03:47:10;;;;;;;3.42;1.30;;;;;;;;;;5054951;28;20024;-69
2024/01/19 03:49:56;;;;;;;1.88;1.58;;;;;;;;;;5052750;28;20024;-69
2024/01/19 03:52:43;;;;;;;16.42;3.15;;;;;;;;;;5051915;28;20544;-69
2024/01/19 03:55:28;;;;;;;2.83;1.50;;;;;;;;;;5006384;28;20022;-68
2024/01/19 03:58:14;;;;;;;3.35;1.10;;;;;;;;;;5033212;28;20117;-69
2024/01/19 04:01:00;;;;;;;6.00;2.28;;;;;;;;;;5033423;28;20092;-69
2024/01/19 04:03:45;;;;;;;12.95;2.08;;;;;;;;;;5033342;28;20218;-69
2024/01/19 04:06:31;;;;;;;7.97;1.75;;;;;;;;;;5034446;28;20025;-69
2024/01/19 04:09:17;;;;;;;5.45;2.03;;;;;;;;;;5034067;28;20501;-69
2024/01/19 04:12:14;;;;;;;3.17;1.38;;;;;;;;;;5033013;28;20391;-69
2024/01/19 04:14:59;;;;;;;9.82;4.18;;;;;;;;;;5019274;28;20025;-69
2024/01/19 04:17:45;;;;;;;10.73;2.13;;;;;;;;;;5032181;28;20079;-69
2024/01/19 04:20:31;;;;;;;9.00;1.83;;;;;;;;;;5034661;28;20022;-69
2024/01/19 04:23:16;;;;;;;3.58;1.63;;;;;;;;;;5034187;28;20549;-69
2024/01/19 04:26:02;;;;;;;8.52;1.85;;;;;;;;;;5034333;28;20033;-69
2024/01/19 04:28:48;;;;;;;6.38;2.08;;;;;;;;;;5032723;28;20017;-69
2024/01/19 04:31:33;;;;;;;2.67;2.17;;;;;;;;;;5031947;28;20053;-69
2024/01/19 04:34:19;;;;;;;7.60;1.50;;;;;;;;;;5034101;28;20417;-69
2024/01/19 04:37:05;;;;;;;9.68;2.15;;;;;;;;;;5034410;28;20036;-69
2024/01/19 04:39:50;;;;;;;2.10;1.40;;;;;;;;;;5034143;28;20060;-69
2024/01/19 04:42:36;;;;;;;16.30;2.38;;;;;;;;;;5033797;28;20483;-69
2024/01/19 04:45:22;;;;;;;9.15;1.83;;;;;;;;;;5033380;28;20449;-69
2024/01/19 04:48:07;;;;;;;2.35;2.15;;;;;;;;;;5032478;28;20021;-69
2024/01/19 04:50:53;;;;;;;4.45;2.92;;;;;;;;;;5032148;28;20147;-69
2024/01/19 04:53:39;;;;;;;6.57;2.13;;;;;;;;;;5031636;28;20033;-69
2024/01/19 04:56:25;;;;;;;4.35;1.55;;;;;;;;;;5031390;28;20029;-69
2024/01/19 04:59:11;;;;;;;35.88;8.73;;;;;;;;;;5032705;28;20025;-69
2024/01/19 05:01:56;;;;;;;54.38;16.40;;;;;;;;;;5033170;28;20059;-68
2024/01/19 05:04:42;;;;;;;135.38;42.28;;;;;;;;;;5033054;28;20116;-69
2024/01/19 05:07:28;;;;;;;82.72;25.52;;;;;;;;;;5031729;28;20022;-69
2024/01/19 05:10:13;;;;;;;126.35;34.30;;;;;;;;;;5032298;28;20032;-69
2024/01/19 05:12:59;;;;;;;188.05;50.05;;;;;;;;;;5032055;28;20052;-69
2024/01/19 05:15:45;;;;;;;48.22;16.27;;;;;;;;;;5033352;28;20537;-69
2024/01/19 05:18:30;;;;;;;33.80;12.45;;;;;;;;;;5031678;28;20109;-69
2024/01/19 05:21:16;;;;;;;11.55;4.47;;;;;;;;;;5032407;28;20031;-69
2024/01/19 05:24:02;;;;;;;26.52;3.50;;;;;;;;;;5033472;28;20030;-69
2024/01/19 05:26:47;;;;;;;65.47;14.70;;;;;;;;;;5032293;28;20465;-69
2024/01/19 05:29:34;;;;;;;10.85;4.53;;;;;;;;;;5033163;28;20033;-69
2024/01/19 05:32:19;;;;;;;44.50;13.40;;;;;;;;;;5017900;28;20546;-69
2024/01/19 05:35:05;;;;;;;10.95;4.70;;;;;;;;;;5032468;28;20391;-69
2024/01/19 05:37:51;;;;;;;20.42;6.72;;;;;;;;;;5032365;28;20116;-69
2024/01/19 05:40:37;;;;;;;20.65;6.20;;;;;;;;;;5032062;28;20082;-69
2024/01/19 05:43:22;;;;;;;6.82;1.98;;;;;;;;;;5032643;28;20033;-69
2024/01/19 05:46:08;;;;;;;2.63;1.90;;;;;;;;;;5033218;28;20159;-69
2024/01/19 05:48:53;;;;;;;3.80;1.67;;;;;;;;;;5033318;28;20108;-69
2024/01/19 05:51:39;;;;;;;3.72;1.88;;;;;;;;;;5033213;28;20014;-69
2024/01/19 05:54:25;;;;;;;3.33;1.15;;;;;;;;;;5032646;28;20095;-69
2024/01/19 05:57:10;;;;;;;1.25;1.13;;;;;;;;;;5033316;28;20104;-69
2024/01/19 05:59:56;;;;;;;4.53;2.03;;;;;;;;;;5033694;28;20108;-69
2024/01/19 06:02:41;;;;;;;6.05;1.33;;;;;;;;;;5030813;28;20456;-68
2024/01/19 06:05:27;;;;;;;2.20;1.80;;;;;;;;;;5033443;28;20022;-69
2024/01/19 06:08:13;;;;;;;2.47;1.75;;;;;;;;;;5035856;28;20025;-69
2024/01/19 06:10:58;;;;;;;4.50;1.88;;;;;;;;;;5036276;28;20083;-69
2024/01/19 06:13:45;;;;;;;8.63;1.85;;;;;;;;;;5034827;28;20487;-69
2024/01/19 06:16:31;;;;;;;6.35;2.00;;;;;;;;;;5035013;28;20372;-69
2024/01/19 06:19:16;;;;;;;5.25;1.38;;;;;;;;;;5034289;28;20033;-68
2024/01/19 06:22:02;;;;;;;5.03;2.08;;;;;;;;;;5035834;28;20017;-69
2024/01/19 06:24:51;;;;;;;5.47;1.45;;;;;;;;;;5036512;28;20116;-69
2024/01/19 06:27:37;;;;;;;5.03;1.13;;;;;;;;;;5022051;28;20022;-69
2024/01/19 06:30:23;;;;;;;1.65;1.33;;;;;;;;;;5036301;28;20018;-69
2024/01/19 06:33:08;;;;;;;8.85;1.50;;;;;;;;;;5035803;28;20415;-68
2024/01/19 06:35:54;;;;;;;14.07;2.33;;;;;;;;;;5036365;28;20156;-69
2024/01/19 06:38:39;;;;;;;4.63;1.70;;;;;;;;;;5036280;28;20079;-69
2024/01/19 06:41:25;;;;;;;6.82;2.00;;;;;;;;;;5035732;28;20025;-68
2024/01/19 06:44:11;;;;;;;6.22;1.80;;;;;;;;;;5034696;28;20084;-69
2024/01/19 06:46:57;;;;;;;8.60;2.30;;;;;;;;;;5035203;28;20032;-69
2024/01/19 06:49:43;;;;;;;3.22;1.52;;;;;;;;;;5035674;28;20410;-69
2024/01/19 06:52:28;;;;;;;4.75;1.63;;;;;;;;;;5035474;28;20448;-69
2024/01/19 06:55:14;;;;;;;13.35;1.70;;;;;;;;;;5021424;28;20025;-69
2024/01/19 06:57:59;;;;;;;9.10;1.50;;;;;;;;;;5034721;28;20021;-69
2024/01/19 07:00:45;;;;;;;6.00;1.90;;;;;;;;;;5036147;28;20017;-69
2024/01/19 07:03:31;;;;;;;7.47;1.92;;;;;;;;;;5036335;28;20115;-69
2024/01/19 07:06:16;;;;;;;6.80;1.75;;;;;;;;;;5044119;28;20039;-69
2024/01/19 07:09:02;;;;;;;4.43;2.03;;;;;;;;;;5054672;28;20490;-69
2024/01/19 07:11:48;;;;;;;12.18;1.83;;;;;;;;;;5053559;28;20021;-69
2024/01/19 07:14:33;;;;;;;2.28;1.13;;;;;;;;;;5053889;28;20025;-69
2024/01/19 07:17:19;;;;;;;5.90;1.58;;;;;;;;;;5055402;28;20029;-69
2024/01/19 07:20:05;;;;;;;11.43;2.28;;;;;;;;;;5053258;28;20028;-69
2024/01/19 07:22:51;;;;;;;13.80;2.58;;;;;;;;;;5054415;28;20025;-68
2024/01/19 07:25:39;;;;;;;9.60;2.63;;;;;;;;;;5055465;28;20039;-68
2024/01/19 07:28:25;;;;;;;3.75;1.55;;;;;;;;;;5039313;28;20052;-69
2024/01/19 07:31:10;;;;;;;4.45;1.42;;;;;;;;;;5053855;28;20017;-69
2024/01/19 07:33:56;;;;;;;7.20;2.55;;;;;;;;;;5054255;28;20059;-69
2024/01/19 07:36:42;;;;;;;5.68;1.92;;;;;;;;;;5053298;28;20063;-69
2024/01/19 07:39:28;;;;;;;13.57;4.13;;;;;;;;;;5039500;28;20032;-69
2024/01/19 07:42:13;;;;;;;2.97;1.60;;;;;;;;;;5053090;28;20113;-69
2024/01/19 07:44:59;;;;;;;12.93;1.88;;;;;;;;;;5053868;28;20509;-69
2024/01/19 07:47:44;;;;;;;4.93;1.52;;;;;;;;;;5053066;28;20021;-69
2024/01/19 07:50:30;;;;;;;8.23;1.65;;;;;;;;;;5053305;28;20164;-69
2024/01/19 07:53:16;;;;;;;7.63;1.95;;;;;;;;;;5052847;28;20106;-69
2024/01/19 07:56:01;;;;;;;5.35;2.15;;;;;;;;;;5053072;28;20025;-69
2024/01/19 07:58:47;;;;;;;8.20;1.88;;;;;;;;;;5054089;28;20055;-69
2024/01/19 08:01:33;;;;;;;2.72;2.13;;;;;;;;;;5053157;28;20434;-69
2024/01/19 08:04:18;;;;;;;11.30;1.98;;;;;;;;;;5052862;28;20028;-69
2024/01/19 08:07:04;;;;;;;4.18;1.95;;;;;;;;;;5033091;28;20134;-69
2024/01/19 08:09:49;;;;;;;3.67;1.60;;;;;;;;;;5032809;28;20025;-69
2024/01/19 08:12:35;;;;;;;5.65;1.67;;;;;;;;;;5049885;28;20375;-69
2024/01/19 08:15:21;;;;;;;9.88;2.00;;;;;;;;;;5037873;28;20021;-69
2024/01/19 08:18:06;;;;;;;10.18;2.85;;;;;;;;;;5052737;28;20042;-69
2024/01/19 08:20:52;;;;;;;4.60;2.20;;;;;;;;;;5052810;28;20024;-69
2024/01/19 08:23:38;;;;;;;5.40;2.13;;;;;;;;;;5052428;28;20113;-69
2024/01/19 08:26:23;;;;;;;4.70;1.20;;;;;;;;;;5052394;28;20056;-69
2024/01/19 08:29:09;;;;;;;8.25;1.83;;;;;;;;;;5052024;28;20025;-68
2024/01/19 08:31:54;;;;;;;9.05;2.40;;;;;;;;;;5052489;28;20045;-69
2024/01/19 08:34:42;;;;;;;8.38;1.70;;;;;;;;;;5052910;28;20483;-69
2024/01/19 08:37:28;;;;;;;6.32;1.55;;;;;;;;;;5052183;28;20056;-69
2024/01/19 08:40:14;;;;;;;6.13;2.25;;;;;;;;;;5051994;28;20021;-69
2024/01/19 08:43:00;;;;;;;2.65;2.10;;;;;;;;;;5052838;28;20108;-69
2024/01/19 08:45:46;;;;;;;11.90;2.58;;;;;;;;;;5037115;28;20554;-68
2024/01/19 08:48:32;;;;;;;4.00;2.20;;;;;;;;;;5051451;28;20051;-69
2024/01/19 08:51:19;;;;;;;2.70;1.48;;;;;;;;;;5053140;28;20013;-69
2024/01/19 08:54:05;;;;;;;8.70;2.22;;;;;;;;;;5082215;22;20122;-70
2024/01/19 08:56:51;;;;;;;8.55;2.65;;;;;;;;;;5112500;28;20030;-71
2024/01/19 08:59:36;;;;;;;6.55;2.15;;;;;;;;;;5111588;28;20020;-71
2024/01/19 09:02:22;;;;;;;9.80;3.08;;;;;;;;;;5112622;28;20396;-71
2024/01/19 09:05:10;;;;;;;5.55;2.50;;;;;;;;;;5110742;28;20019;-71
2024/01/19 09:07:56;;;;;;;11.32;2.08;;;;;;;;;;5112273;28;20374;-71
2024/01/19 09:10:42;;;;;;;9.13;2.80;;;;;;;;;;5111786;28;20031;-71
2024/01/19 09:13:27;;;;;;;4.60;1.80;;;;;;;;;;5112681;28;20488;-71
2024/01/19 09:16:13;;;;;;;3.75;1.27;;;;;;;;;;5096664;28;20054;-71
2024/01/19 09:18:58;;;;;;;4.25;1.98;;;;;;;;;;5070366;28;20017;-71
2024/01/19 09:21:44;;;;;;;2.13;1.48;;;;;;;;;;5070724;28;20103;-71
2024/01/19 09:24:30;;;;;;;3.88;1.67;;;;;;;;;;5104219;28;20019;-71
2024/01/19 09:27:15;;;;;;;4.18;1.50;;;;;;;;;;5111794;28;20027;-71
2024/01/19 09:30:01;;;;;;;7.60;1.73;;;;;;;;;;5111525;28;20511;-71
2024/01/19 09:32:47;;;;;;;4.22;2.05;;;;;;;;;;5111305;28;20476;-71
2024/01/19 09:35:32;;;;;;;3.72;1.95;;;;;;;;;;5104201;28;20028;-71
2024/01/19 09:38:18;;;;;;;5.10;2.70;;;;;;;;;;5091110;28;20024;-71
2024/01/19 09:41:22;;;;;;;1.77;1.48;;;;;;;;;;5095242;28;20103;-71
2024/01/19 09:44:09;;;;;;;2.30;1.73;;;;;;;;;;5114148;28;20030;-71
2024/01/19 09:47:16;;;;;;;5.32;1.38;;;;;;;;;;5099926;28;20030;-71
2024/01/19 09:50:06;;;;;;;5.03;1.40;;;;;;;;;;5101451;28;20028;-72
2024/01/19 09:52:58;;;;;;;7.88;2.15;;;;;;;;;;5100650;28;20012;-71
2024/01/19 09:55:45;;;;;;;3.75;1.65;;;;;;;;;;5115241;28;20492;-71
2024/01/19 09:58:31;;;;;;;6.43;2.35;;;;;;;;;;5100152;28;20381;-71
2024/01/19 10:01:17;;;;;;;7.22;1.50;;;;;;;;;;5115298;28;20023;-71
2024/01/19 10:04:05;;;;;;;4.97;1.85;;;;;;;;;;5114185;28;20020;-71
2024/01/19 10:06:51;;;;;;;3.80;1.60;;;;;;;;;;5100727;28;20058;-71
2024/01/19 10:09:37;;;;;;;7.25;1.52;;;;;;;;;;5099174;28;20114;-71
2024/01/19 10:12:24;;;;;;;4.43;1.45;;;;;;;;;;5100222;28;20019;-71
2024/01/19 10:15:13;;;;;;;4.10;1.90;;;;;;;;;;5115335;28;20027;-71
2024/01/19 10:18:00;;;;;;;9.70;1.77;;;;;;;;;;5101874;28;20362;-71
2024/01/19 10:20:48;;;;;;;8.70;1.70;;;;;;;;;;5100597;28;20435;-72
2024/01/19 10:23:34;;;;;;;4.82;1.67;;;;;;;;;;5099948;28;20031;-71
2024/01/19 10:26:20;;;;;;;2.15;1.40;;;;;;;;;;5100125;28;20024;-72
2024/01/19 10:29:13;;;;;;;2.28;1.15;;;;;;;;;;5115410;28;20023;-72
2024/01/19 10:31:59;;;;;;;8.07;1.63;;;;;;;;;;5099538;28;20015;-72
2024/01/19 10:34:44;;;;;;;1.23;1.13;;;;;;;;;;5115551;28;20020;-72
2024/01/19 10:37:30;;;;;;;4.93;1.33;;;;;;;;;;5115330;28;20024;-72
2024/01/19 10:40:22;;;;;;;9.10;1.35;;;;;;;;;;5114971;28;20034;-72
2024/01/19 10:43:10;;;;;;;1.98;1.13;;;;;;;;;;5099592;28;20024;-72
2024/01/19 10:45:56;;;;;;;3.92;1.23;;;;;;;;;;5099330;28;20055;-72
2024/01/19 10:48:46;;;;;;;1.33;1.15;;;;;;;;;;5099978;28;20556;-72
2024/01/19 10:51:37;;;;;;;2.83;1.05;;;;;;;;;;5100454;28;20046;-72
2024/01/19 10:54:27;;;;;;;4.93;0.93;;;;;;;;;;5098104;28;20377;-72
2024/01/19 10:57:14;;;;;;;1.75;1.23;;;;;;;;;;5114748;28;20035;-72
2024/01/19 11:00:17;;;;;;;3.80;1.90;;;;;;;;;;5113839;28;20024;-72
2024/01/19 11:03:04;;;;;;;3.10;1.42;;;;;;;;;;5100274;28;20016;-72
2024/01/19 11:05:53;;;;;;;5.03;2.25;;;;;;;;;;5114142;28;20055;-71
2024/01/19 11:08:39;;;;;;;13.45;6.50;;;;;;;;;;5100138;28;20023;-72
2024/01/19 11:11:26;;;;;;;8.80;4.05;;;;;;;;;;5114606;28;20469;-72
2024/01/19 11:14:17;;;;;;;4.30;3.00;;;;;;;;;;5114461;28;20026;-72
2024/01/19 11:17:02;;;;;;;7.07;1.65;;;;;;;;;;5114906;28;20019;-72
2024/01/19 11:19:48;;;;;;;2.53;1.55;;;;;;;;;;5114885;28;20028;-72
2024/01/19 11:22:34;;;;;;;5.00;1.85;;;;;;;;;;5099285;28;20028;-72
2024/01/19 11:25:56;;;;;;;7.05;2.42;;;;;;;;;;5099091;28;20023;-72
2024/01/19 11:28:56;;;;;;;3.80;1.90;;;;;;;;;;5115325;28;20378;-72
2024/01/19 11:31:42;;;;;;;2.00;1.60;;;;;;;;;;5115006;28;20031;-72
2024/01/19 11:34:49;;;;;;;11.98;4.57;;;;;;;;;;5113967;28;20449;-72
2024/01/19 11:37:40;;;;;;;11.20;3.15;;;;;;;;;;5099619;28;20063;-72
2024/01/19 11:40:29;;;;;;;;;;;;;;;;;;5099570;28;20080;-72
2024/01/19 11:43:38;;;;;;;7.80;1.83;;;;;;;;;;5114158;28;19912;-72
2024/01/19 11:46:46;;;;;;;8.38;2.70;;;;;;;;;;5098610;28;20020;-72
2024/01/19 11:49:37;;;;;;;10.18;2.00;;;;;;;;;;5085455;28;20044;-72
2024/01/19 11:52:22;;;;;;;4.43;2.60;;;;;;;;;;5113806;28;20023;-72
2024/01/19 11:55:26;;;;;;;5.25;1.80;;;;;;;;;;5111962;28;20035;-71
2024/01/19 11:58:29;;;;;;;6.30;1.65;;;;;;;;;;5114177;28;20024;-71
2024/01/19 12:01:14;;;;;;;5.38;1.77;;;;;;;;;;5114203;28;20050;-72
2024/01/19 12:04:00;;;;;;;6.57;2.42;;;;;;;;;;5113406;28;20126;-72
2024/01/19 12:06:46;;;;;;;5.65;2.85;;;;;;;;;;5113005;28;20019;-72
2024/01/19 12:09:31;;;;;;;15.25;5.18;;;;;;;;;;5113442;28;20027;-71
2024/01/19 12:12:17;;;;;;;11.02;3.08;;;;;;;;;;5113844;28;20022;-72
2024/01/19 12:15:04;;;;;;;14.10;3.85;;;;;;;;;;5097479;28;20027;-72
2024/01/19 12:17:50;;;;;;;9.10;3.05;;;;;;;;;;5113426;28;20028;-71
2024/01/19 12:20:36;;;;;;;10.93;3.60;;;;;;;;;;5112500;28;20406;-72
2024/01/19 12:23:22;;;;;;;11.98;2.72;;;;;;;;;;5112791;28;20030;-72
2024/01/19 12:26:08;;;;;;;10.05;2.33;;;;;;;;;;5098294;28;20049;-72
2024/01/19 12:28:55;;;;;;;13.10;3.05;;;;;;;;;;5113337;28;20030;-72
2024/01/19 12:31:40;;;;;;;8.55;2.25;;;;;;;;;;5098538;28;20030;-72
2024/01/19 12:34:26;;;;;;;8.73;2.10;;;;;;;;;;5097301;28;20106;-72
2024/01/19 12:37:13;;;;;;;10.93;2.17;;;;;;;;;;5113152;28;20076;-72
2024/01/19 12:40:15;;;;;;;5.00;2.60;;;;;;;;;;5113644;28;20019;-72
2024/01/19 12:43:02;;;;;;;6.28;2.65;;;;;;;;;;5111992;28;20032;-72
2024/01/19 12:45:49;;;;;;;8.45;2.15;;;;;;;;;;5097641;28;20504;-71
2024/01/19 12:48:35;;;;;;;13.02;2.30;;;;;;;;;;5098114;28;20149;-71
2024/01/19 12:51:21;;;;;;;3.35;1.52;;;;;;;;;;5097949;28;20400;-69
2024/01/19 12:54:06;;;;;;;7.78;2.42;;;;;;;;;;5111104;28;20035;-69
2024/01/19 12:56:53;;;;;;;10.90;2.70;;;;;;;;;;5112175;28;20051;-69
2024/01/19 12:59:39;;;;;;;7.43;1.70;;;;;;;;;;5112698;28;20488;-69
2024/01/19 13:02:24;;;;;;;8.73;2.03;;;;;;;;;;5112316;28;20051;-69
2024/01/19 13:05:25;;;;;;;6.57;2.35;;;;;;;;;;5097268;28;20052;-71
2024/01/19 13:08:12;;;;;;;8.18;2.20;;;;;;;;;;5083575;28;20020;-71
2024/01/19 13:11:08;;;;;;;11.57;4.45;;;;;;;;;;5075499;28;20022;-71
2024/01/19 13:14:00;;;;;;;12.38;2.17;;;;;;;;;;5095486;28;20019;-71
2024/01/19 13:16:54;;;;;;;6.72;2.03;;;;;;;;;;5096650;28;20445;-71
2024/01/19 13:19:43;;;;;;;4.32;2.30;;;;;;;;;;5097749;28;20032;-71
2024/01/19 13:22:29;;;;;;;8.25;2.25;;;;;;;;;;5111314;28;20032;-71
2024/01/19 13:25:14;;;;;;;9.43;2.42;;;;;;;;;;5112356;28;20073;-71
2024/01/19 13:28:00;;;;;;;9.98;1.80;;;;;;;;;;5111836;28;20098;-71
2024/01/19 13:30:47;;;;;;;2.58;1.83;;;;;;;;;;5112295;28;20387;-71
2024/01/19 13:33:33;;;;;;;7.82;1.88;;;;;;;;;;5096899;28;20027;-71
2024/01/19 13:36:19;;;;;;;7.70;2.10;;;;;;;;;;5112330;28;20054;-71
2024/01/19 13:39:05;;;;;;;3.42;1.63;;;;;;;;;;5096803;28;20023;-71
2024/01/19 13:41:50;;;;;;;11.52;2.13;;;;;;;;;;5096924;28;20027;-72
2024/01/19 13:44:36;;;;;;;9.57;2.47;;;;;;;;;;5111496;28;20024;-72
2024/01/19 13:47:22;;;;;;;4.93;1.63;;;;;;;;;;5096900;28;20480;-72
2024/01/19 13:50:08;;;;;;;3.50;1.52;;;;;;;;;;5111118;28;20445;-71
2024/01/19 13:52:53;;;;;;;9.10;2.28;;;;;;;;;;5112818;28;20026;-72
2024/01/19 13:55:39;;;;;;;4.78;2.72;;;;;;;;;;5111183;28;20545;-72
2024/01/19 13:58:24;;;;;;;8.15;2.45;;;;;;;;;;5111302;28;20465;-71
2024/01/19 14:01:10;;;;;;;6.72;2.33;;;;;;;;;;5112019;28;20019;-71
2024/01/19 14:03:56;;;;;;;6.03;2.03;;;;;;;;;;5112518;28;20028;-71
2024/01/19 14:06:42;;;;;;;7.10;2.20;;;;;;;;;;5111935;28;20084;-71
2024/01/19 14:09:27;;;;;;;5.32;1.45;;;;;;;;;;5110539;28;20106;-71
2024/01/19 14:12:14;;;;;;;7.28;2.38;;;;;;;;;;5097724;28;20427;-71
2024/01/19 14:14:59;;;;;;;10.30;2.50;;;;;;;;;;5096396;28;20023;-71
2024/01/19 14:17:45;;;;;;;12.45;2.47;;;;;;;;;;5112199;28;20035;-71
2024/01/19 14:20:31;;;;;;;4.13;2.05;;;;;;;;;;5111202;28;20106;-71
2024/01/19 14:23:16;;;;;;;9.45;2.17;;;;;;;;;;5112125;28;20030;-71
2024/01/19 14:26:02;;;;;;;16.15;3.42;;;;;;;;;;5111812;28;20023;-71
2024/01/19 14:28:48;;;;;;;12.35;2.22;;;;;;;;;;5113573;28;20051;-70
2024/01/19 14:31:33;;;;;;;12.65;2.70;;;;;;;;;;5115934;28;20477;-71
2024/01/19 14:34:19;;;;;;;16.13;3.03;;;;;;;;;;5115439;28;20038;-71
2024/01/19 14:37:09;;;;;;;15.32;3.28;;;;;;;;;;5115539;28;20023;-71
2024/01/19 14:39:55;;;;;;;6.78;2.67;;;;;;;;;;5101168;28;20087;-71
2024/01/19 14:42:41;;;;;;;13.43;2.70;;;;;;;;;;5115085;28;20111;-71
2024/01/19 14:45:28;;;;;;;14.95;3.25;;;;;;;;;;5113967;28;20084;-71
2024/01/19 14:48:14;;;;;;;9.77;2.42;;;;;;;;;;5115544;28;20076;-71
2024/01/19 14:51:00;;;;;;;7.97;2.40;;;;;;;;;;5101153;28;20020;-71
2024/01/19 14:53:46;;;;;;;19.35;2.78;;;;;;;;;;5114111;28;20019;-71
2024/01/19 14:56:31;;;;;;;18.42;3.22;;;;;;;;;;5137840;22;20043;-70
2024/01/19 14:59:17;;;;;;;16.55;2.70;;;;;;;;;;5101137;28;20019;-70
2024/01/19 15:02:03;;;;;;;16.50;4.07;;;;;;;;;;5115039;28;20515;-69
2024/01/19 15:04:49;;;;;;;18.50;4.25;;;;;;;;;;5116450;28;20032;-69
2024/01/19 15:07:34;;;;;;;11.68;2.67;;;;;;;;;;5116301;28;20024;-69
2024/01/19 15:10:20;;;;;;;10.93;2.92;;;;;;;;;;5115695;28;20019;-69
2024/01/19 15:13:05;;;;;;;20.60;4.05;;;;;;;;;;5115807;28;20047;-68
2024/01/19 15:15:51;;;;;;;16.17;2.67;;;;;;;;;;5115476;28;20114;-69
2024/01/19 15:18:37;;;;;;;11.95;2.60;;;;;;;;;;5115634;28;20426;-70
2024/01/19 15:21:22;;;;;;;6.72;3.28;;;;;;;;;;5115282;28;20020;-70
2024/01/19 15:24:08;;;;;;;16.77;3.30;;;;;;;;;;5114553;28;20020;-69
2024/01/19 15:26:54;;;;;;;13.00;3.17;;;;;;;;;;5115307;28;20059;-70
2024/01/19 15:29:39;;;;;;;17.13;4.38;;;;;;;;;;5116452;28;20055;-69
2024/01/19 15:32:25;;;;;;;13.50;5.35;;;;;;;;;;5113667;28;20037;-69
2024/01/19 15:35:11;;;;;;;14.55;3.28;;;;;;;;;;5115933;28;20019;-69
2024/01/19 15:37:57;;;;;;;22.45;5.47;;;;;;;;;;5115008;28;20030;-69
2024/01/19 15:40:42;;;;;;;14.98;2.88;;;;;;;;;;5100487;28;20027;-68
2024/01/19 15:43:28;;;;;;;13.95;3.13;;;;;;;;;;5113497;28;20031;-70
2024/01/19 15:46:20;;;;;;;18.38;4.10;;;;;;;;;;5114034;28;20023;-70
2024/01/19 15:49:06;;;;;;;18.25;2.88;;;;;;;;;;5100231;28;20031;-68
2024/01/19 15:51:52;;;;;;;13.25;2.72;;;;;;;;;;5115022;28;20012;-68
2024/01/19 15:54:41;;;;;;;9.38;3.65;;;;;;;;;;5114757;28;20076;-70
2024/01/19 15:57:27;;;;;;;10.15;3.30;;;;;;;;;;5114124;28;20028;-70
2024/01/19 16:00:13;;;;;;;9.80;3.58;;;;;;;;;;5113794;28;20030;-69
2024/01/19 16:02:58;;;;;;;16.48;4.70;;;;;;;;;;5113670;28;20028;-70
2024/01/19 16:05:44;;;;;;;13.73;4.15;;;;;;;;;;5114248;28;20130;-71
2024/01/19 16:08:30;;;;;;;8.48;2.45;;;;;;;;;;5114867;28;20381;-70
2024/01/19 16:11:16;;;;;;;28.45;3.20;;;;;;;;;;5113324;28;20092;-70
2024/01/19 16:14:06;;;;;;;10.07;3.25;;;;;;;;;;5098382;28;20062;-71
2024/01/19 16:16:52;;;;;;;11.63;2.88;;;;;;;;;;5113671;28;20019;-71
2024/01/19 16:19:37;;;;;;;25.05;3.40;;;;;;;;;;5114553;28;20023;-70
2024/01/19 16:22:23;;;;;;;11.57;4.32;;;;;;;;;;5097784;28;20035;-71
2024/01/19 16:25:08;;;;;;;20.00;3.83;;;;;;;;;;5096465;28;20443;-70
2024/01/19 16:27:54;;;;;;;11.95;3.72;;;;;;;;;;5092593;28;20052;-71
2024/01/19 16:30:41;;;;;;;17.75;3.45;;;;;;;;;;5091622;28;20016;-70
2024/01/19 16:33:26;;;;;;;11.50;2.53;;;;;;;;;;5093031;28;20024;-69
2024/01/19 16:36:13;;;;;;;8.77;2.78;;;;;;;;;;5093006;28;20024;-70
2024/01/19 16:38:58;;;;;;;12.40;2.90;;;;;;;;;;5093400;28;20084;-70
2024/01/19 16:41:46;;;;;;;7.70;2.85;;;;;;;;;;5095034;28;20024;-70